sensor_id;sensor_type;location;lat;lon;timestamp;temperature;humidity
33988;DHT22;37428;53.580;-1.666;2023-12-04T00:00:48;0.60;99.90
33988;DHT22;37428;53.580;-1.666;2023-12-04T00:03:50;0.70;99.90
33988;DHT22;37428;53.580;-1.666;2023-12-04T00:06:52;0.60;99.80
33988;DHT22;37428;53.580;-1.666;2023-12-04T00:09:54;0.60;99.90
33988;DHT22;37428;53.580;-1.666;2023-12-04T00:12:57;0.60;99.90
33988;DHT22;37428;53.580;-1.666;2023-12-04T00:16:00;0.50;99.90
33988;DHT22;37428;53.580;-1.666;2023-12-04T00:19:03;0.50;99.90
33988;DHT22;37428;53.580;-1.666;2023-12-04T00:22:05;0.60;99.90
33988;DHT22;37428;53.580;-1.666;2023-12-04T00:25:07;0.50;99.90
33988;DHT22;37428;53.580;-1.666;2023-12-04T00:28:10;0.60;99.90
33988;DHT22;37428;53.580;-1.666;2023-12-04T00:31:13;0.60;99.90
33988;DHT22;37428;53.580;-1.666;2023-12-04T00:34:15;0.60;99.90
33988;DHT22;37428;53.580;-1.666;2023-12-04T00:37:18;0.60;99.90
33988;DHT22;37428;53.580;-1.666;2023-12-04T00:40:20;0.60;99.90
33988;DHT22;37428;53.580;-1.666;2023-12-04T00:43:22;0.60;99.90
33988;DHT22;37428;53.580;-1.666;2023-12-04T00:46:25;0.70;99.90
33988;DHT22;37428;53.580;-1.666;2023-12-04T00:49:28;0.70;99.90
33988;DHT22;37428;53.580;-1.666;2023-12-04T00:52:30;0.70;99.90
33988;DHT22;37428;53.580;-1.666;2023-12-04T00:55:32;0.70;99.90
33988;DHT22;37428;53.580;-1.666;2023-12-04T00:58:34;0.70;99.90
33988;DHT22;37428;53.580;-1.666;2023-12-04T01:01:38;0.70;99.90
33988;DHT22;37428;53.580;-1.666;2023-12-04T01:04:40;0.80;99.90
33988;DHT22;37428;53.580;-1.666;2023-12-04T01:07:43;0.80;99.70
33988;DHT22;37428;53.580;-1.666;2023-12-04T01:10:45;0.70;99.50
33988;DHT22;37428;53.580;-1.666;2023-12-04T01:13:48;0.70;99.70
33988;DHT22;37428;53.580;-1.666;2023-12-04T01:16:52;0.80;99.50
33988;DHT22;37428;53.580;-1.666;2023-12-04T01:19:54;0.80;99.70
33988;DHT22;37428;53.580;-1.666;2023-12-04T01:22:56;0.70;99.60
33988;DHT22;37428;53.580;-1.666;2023-12-04T01:25:58;0.70;99.90
33988;DHT22;37428;53.580;-1.666;2023-12-04T01:29:01;0.70;99.70
33988;DHT22;37428;53.580;-1.666;2023-12-04T01:32:05;0.70;99.90
33988;DHT22;37428;53.580;-1.666;2023-12-04T01:35:07;0.80;99.90
33988;DHT22;37428;53.580;-1.666;2023-12-04T01:38:10;0.70;99.80
33988;DHT22;37428;53.580;-1.666;2023-12-04T01:41:12;0.70;99.90
33988;DHT22;37428;53.580;-1.666;2023-12-04T01:44:14;0.70;99.90
33988;DHT22;37428;53.580;-1.666;2023-12-04T01:47:18;0.70;99.90
33988;DHT22;37428;53.580;-1.666;2023-12-04T01:50:22;0.70;99.90
33988;DHT22;37428;53.580;-1.666;2023-12-04T01:53:24;0.70;99.90
33988;DHT22;37428;53.580;-1.666;2023-12-04T01:56:26;0.70;99.90
33988;DHT22;37428;53.580;-1.666;2023-12-04T01:59:29;0.60;99.90
33988;DHT22;37428;53.580;-1.666;2023-12-04T02:02:32;0.60;99.90
33988;DHT22;37428;53.580;-1.666;2023-12-04T02:05:35;0.60;99.90
33988;DHT22;37428;53.580;-1.666;2023-12-04T02:08:37;0.60;99.90
33988;DHT22;37428;53.580;-1.666;2023-12-04T02:11:39;0.60;99.90
33988;DHT22;37428;53.580;-1.666;2023-12-04T02:14:42;0.60;99.90
33988;DHT22;37428;53.580;-1.666;2023-12-04T02:17:45;0.60;99.90
33988;DHT22;37428;53.580;-1.666;2023-12-04T02:20:47;0.60;99.90
33988;DHT22;37428;53.580;-1.666;2023-12-04T02:23:52;0.70;99.90
33988;DHT22;37428;53.580;-1.666;2023-12-04T02:26:59;0.70;99.90
33988;DHT22;37428;53.580;-1.666;2023-12-04T02:30:07;0.70;99.90
33988;DHT22;37428;53.580;-1.666;2023-12-04T02:33:11;0.70;99.90
33988;DHT22;37428;53.580;-1.666;2023-12-04T02:36:14;0.80;99.90
33988;DHT22;37428;53.580;-1.666;2023-12-04T02:39:18;0.80;99.90
33988;DHT22;37428;53.580;-1.666;2023-12-04T02:42:21;0.80;99.90
33988;DHT22;37428;53.580;-1.666;2023-12-04T02:45:25;0.90;99.90
33988;DHT22;37428;53.580;-1.666;2023-12-04T02:48:27;0.90;99.90
33988;DHT22;37428;53.580;-1.666;2023-12-04T02:51:30;0.90;99.90
33988;DHT22;37428;53.580;-1.666;2023-12-04T02:54:33;0.90;99.90
33988;DHT22;37428;53.580;-1.666;2023-12-04T02:57:35;0.90;99.90
33988;DHT22;37428;53.580;-1.666;2023-12-04T03:00:38;0.90;99.90
33988;DHT22;37428;53.580;-1.666;2023-12-04T03:03:40;0.90;99.90
33988;DHT22;37428;53.580;-1.666;2023-12-04T03:06:42;0.90;99.90
33988;DHT22;37428;53.580;-1.666;2023-12-04T03:09:46;0.90;99.90
33988;DHT22;37428;53.580;-1.666;2023-12-04T03:12:48;0.90;99.90
33988;DHT22;37428;53.580;-1.666;2023-12-04T03:15:50;0.90;99.90
33988;DHT22;37428;53.580;-1.666;2023-12-04T03:18:53;0.90;99.90
33988;DHT22;37428;53.580;-1.666;2023-12-04T03:21:55;0.90;99.90
33988;DHT22;37428;53.580;-1.666;2023-12-04T03:24:58;0.90;99.90
33988;DHT22;37428;53.580;-1.666;2023-12-04T03:28:01;0.90;99.90
33988;DHT22;37428;53.580;-1.666;2023-12-04T03:31:03;0.90;99.90
33988;DHT22;37428;53.580;-1.666;2023-12-04T03:34:06;0.90;99.90
33988;DHT22;37428;53.580;-1.666;2023-12-04T03:37:08;0.90;99.90
33988;DHT22;37428;53.580;-1.666;2023-12-04T03:40:12;0.90;99.90
33988;DHT22;37428;53.580;-1.666;2023-12-04T03:43:14;0.90;99.90
33988;DHT22;37428;53.580;-1.666;2023-12-04T03:46:16;0.90;99.90
33988;DHT22;37428;53.580;-1.666;2023-12-04T03:49:19;0.90;99.90
33988;DHT22;37428;53.580;-1.666;2023-12-04T03:52:21;0.90;99.90
33988;DHT22;37428;53.580;-1.666;2023-12-04T03:55:24;0.90;99.90
33988;DHT22;37428;53.580;-1.666;2023-12-04T03:58:27;0.90;99.90
33988;DHT22;37428;53.580;-1.666;2023-12-04T04:01:29;0.90;99.90
33988;DHT22;37428;53.580;-1.666;2023-12-04T04:04:31;0.90;99.90
33988;DHT22;37428;53.580;-1.666;2023-12-04T04:07:33;0.80;99.90
33988;DHT22;37428;53.580;-1.666;2023-12-04T04:10:37;0.80;99.90
33988;DHT22;37428;53.580;-1.666;2023-12-04T04:13:39;0.80;99.90
33988;DHT22;37428;53.580;-1.666;2023-12-04T04:16:41;0.90;99.90
33988;DHT22;37428;53.580;-1.666;2023-12-04T04:19:43;0.90;99.90
33988;DHT22;37428;53.580;-1.666;2023-12-04T04:22:48;0.90;99.90
33988;DHT22;37428;53.580;-1.666;2023-12-04T04:25:51;0.80;99.90
33988;DHT22;37428;53.580;-1.666;2023-12-04T04:28:54;0.90;99.90
33988;DHT22;37428;53.580;-1.666;2023-12-04T04:31:56;0.90;99.90
33988;DHT22;37428;53.580;-1.666;2023-12-04T04:34:58;0.90;99.90
33988;DHT22;37428;53.580;-1.666;2023-12-04T04:38:00;0.90;99.90
33988;DHT22;37428;53.580;-1.666;2023-12-04T04:41:04;0.90;99.90
33988;DHT22;37428;53.580;-1.666;2023-12-04T04:44:06;0.90;99.90
33988;DHT22;37428;53.580;-1.666;2023-12-04T04:47:09;0.90;99.90
33988;DHT22;37428;53.580;-1.666;2023-12-04T04:50:11;0.90;99.90
33988;DHT22;37428;53.580;-1.666;2023-12-04T04:53:13;0.90;99.90
33988;DHT22;37428;53.580;-1.666;2023-12-04T04:56:17;0.90;99.90
33988;DHT22;37428;53.580;-1.666;2023-12-04T04:59:20;1.00;99.90
33988;DHT22;37428;53.580;-1.666;2023-12-04T05:02:22;0.90;99.90
33988;DHT22;37428;53.580;-1.666;2023-12-04T05:05:24;0.90;99.90
33988;DHT22;37428;53.580;-1.666;2023-12-04T05:08:26;0.80;99.90
33988;DHT22;37428;53.580;-1.666;2023-12-04T05:11:30;0.90;99.90
33988;DHT22;37428;53.580;-1.666;2023-12-04T05:14:32;0.90;99.90
33988;DHT22;37428;53.580;-1.666;2023-12-04T05:17:34;0.90;99.90
33988;DHT22;37428;53.580;-1.666;2023-12-04T05:20:37;1.00;99.90
33988;DHT22;37428;53.580;-1.666;2023-12-04T05:23:39;1.00;99.90
33988;DHT22;37428;53.580;-1.666;2023-12-04T05:26:43;1.00;99.90
33988;DHT22;37428;53.580;-1.666;2023-12-04T05:29:45;1.00;99.90
33988;DHT22;37428;53.580;-1.666;2023-12-04T05:32:47;1.10;99.90
33988;DHT22;37428;53.580;-1.666;2023-12-04T05:35:50;1.00;99.90
33988;DHT22;37428;53.580;-1.666;2023-12-04T05:38:53;1.10;99.90
33988;DHT22;37428;53.580;-1.666;2023-12-04T05:41:57;1.10;99.90
33988;DHT22;37428;53.580;-1.666;2023-12-04T05:44:59;1.10;99.90
33988;DHT22;37428;53.580;-1.666;2023-12-04T05:48:01;1.20;99.90
33988;DHT22;37428;53.580;-1.666;2023-12-04T05:51:04;1.20;99.90
33988;DHT22;37428;53.580;-1.666;2023-12-04T05:54:06;1.20;99.90
33988;DHT22;37428;53.580;-1.666;2023-12-04T05:57:11;1.20;99.90
33988;DHT22;37428;53.580;-1.666;2023-12-04T06:00:14;1.20;99.90
33988;DHT22;37428;53.580;-1.666;2023-12-04T06:03:16;1.20;99.90
33988;DHT22;37428;53.580;-1.666;2023-12-04T06:06:18;1.20;99.90
33988;DHT22;37428;53.580;-1.666;2023-12-04T06:09:20;1.20;99.90
33988;DHT22;37428;53.580;-1.666;2023-12-04T06:12:24;1.20;99.90
33988;DHT22;37428;53.580;-1.666;2023-12-04T06:15:26;1.20;99.90
33988;DHT22;37428;53.580;-1.666;2023-12-04T06:18:28;1.20;99.90
33988;DHT22;37428;53.580;-1.666;2023-12-04T06:21:31;1.20;99.90
33988;DHT22;37428;53.580;-1.666;2023-12-04T06:24:33;1.20;99.90
33988;DHT22;37428;53.580;-1.666;2023-12-04T06:27:37;1.10;99.90
33988;DHT22;37428;53.580;-1.666;2023-12-04T06:30:41;1.10;99.90
33988;DHT22;37428;53.580;-1.666;2023-12-04T06:33:43;1.10;99.90
33988;DHT22;37428;53.580;-1.666;2023-12-04T06:36:46;1.20;99.90
33988;DHT22;37428;53.580;-1.666;2023-12-04T06:39:48;1.10;99.90
33988;DHT22;37428;53.580;-1.666;2023-12-04T06:42:53;1.20;99.90
33988;DHT22;37428;53.580;-1.666;2023-12-04T06:45:56;1.10;99.90
33988;DHT22;37428;53.580;-1.666;2023-12-04T06:49:00;1.20;99.90
33988;DHT22;37428;53.580;-1.666;2023-12-04T06:52:03;1.20;99.90
33988;DHT22;37428;53.580;-1.666;2023-12-04T06:55:06;1.20;99.90
33988;DHT22;37428;53.580;-1.666;2023-12-04T06:58:10;1.20;99.90
33988;DHT22;37428;53.580;-1.666;2023-12-04T07:01:12;1.20;99.90
33988;DHT22;37428;53.580;-1.666;2023-12-04T07:04:16;1.20;99.90
33988;DHT22;37428;53.580;-1.666;2023-12-04T07:07:21;1.20;99.90
33988;DHT22;37428;53.580;-1.666;2023-12-04T07:10:23;1.30;99.90
33988;DHT22;37428;53.580;-1.666;2023-12-04T07:13:27;1.30;99.90
33988;DHT22;37428;53.580;-1.666;2023-12-04T07:16:29;1.20;99.90
33988;DHT22;37428;53.580;-1.666;2023-12-04T07:19:32;1.30;99.90
33988;DHT22;37428;53.580;-1.666;2023-12-04T07:22:34;1.30;99.90
33988;DHT22;37428;53.580;-1.666;2023-12-04T07:25:36;1.20;99.90
33988;DHT22;37428;53.580;-1.666;2023-12-04T07:28:40;1.20;99.90
33988;DHT22;37428;53.580;-1.666;2023-12-04T07:31:42;1.20;99.90
33988;DHT22;37428;53.580;-1.666;2023-12-04T07:34:44;1.20;99.90
33988;DHT22;37428;53.580;-1.666;2023-12-04T07:37:46;1.20;99.90
33988;DHT22;37428;53.580;-1.666;2023-12-04T07:40:49;1.30;99.90
33988;DHT22;37428;53.580;-1.666;2023-12-04T07:43:53;1.30;99.90
33988;DHT22;37428;53.580;-1.666;2023-12-04T07:46:55;1.30;99.90
33988;DHT22;37428;53.580;-1.666;2023-12-04T07:49:58;1.30;99.90
33988;DHT22;37428;53.580;-1.666;2023-12-04T07:53:00;1.30;99.90
33988;DHT22;37428;53.580;-1.666;2023-12-04T07:56:03;1.30;99.90
33988;DHT22;37428;53.580;-1.666;2023-12-04T07:59:07;1.30;99.90
33988;DHT22;37428;53.580;-1.666;2023-12-04T08:02:09;1.30;99.90
33988;DHT22;37428;53.580;-1.666;2023-12-04T08:05:12;1.30;99.90
33988;DHT22;37428;53.580;-1.666;2023-12-04T08:08:14;1.40;99.90
33988;DHT22;37428;53.580;-1.666;2023-12-04T08:11:17;1.30;99.90
33988;DHT22;37428;53.580;-1.666;2023-12-04T08:14:21;1.30;99.90
33988;DHT22;37428;53.580;-1.666;2023-12-04T08:17:23;1.40;99.90
33988;DHT22;37428;53.580;-1.666;2023-12-04T08:20:26;1.40;99.90
33988;DHT22;37428;53.580;-1.666;2023-12-04T08:23:28;1.40;99.90
33988;DHT22;37428;53.580;-1.666;2023-12-04T08:26:31;1.50;99.90
33988;DHT22;37428;53.580;-1.666;2023-12-04T08:29:34;1.40;99.90
33988;DHT22;37428;53.580;-1.666;2023-12-04T08:32:37;1.40;99.90
33988;DHT22;37428;53.580;-1.666;2023-12-04T08:35:39;1.40;99.90
33988;DHT22;37428;53.580;-1.666;2023-12-04T08:38:41;1.40;99.90
33988;DHT22;37428;53.580;-1.666;2023-12-04T08:41:45;1.50;99.90
33988;DHT22;37428;53.580;-1.666;2023-12-04T08:44:49;1.50;99.90
33988;DHT22;37428;53.580;-1.666;2023-12-04T08:47:51;1.50;99.90
33988;DHT22;37428;53.580;-1.666;2023-12-04T08:50:53;1.50;99.90
33988;DHT22;37428;53.580;-1.666;2023-12-04T08:53:56;1.50;99.90
33988;DHT22;37428;53.580;-1.666;2023-12-04T08:56:58;1.60;99.90
33988;DHT22;37428;53.580;-1.666;2023-12-04T09:00:02;1.60;99.90
33988;DHT22;37428;53.580;-1.666;2023-12-04T09:03:05;1.60;99.90
33988;DHT22;37428;53.580;-1.666;2023-12-04T09:06:08;1.60;99.90
33988;DHT22;37428;53.580;-1.666;2023-12-04T09:09:10;1.70;99.90
33988;DHT22;37428;53.580;-1.666;2023-12-04T09:12:14;1.60;99.90
33988;DHT22;37428;53.580;-1.666;2023-12-04T09:15:18;1.70;99.90
33988;DHT22;37428;53.580;-1.666;2023-12-04T09:18:20;1.70;99.90
33988;DHT22;37428;53.580;-1.666;2023-12-04T09:21:23;1.70;99.90
33988;DHT22;37428;53.580;-1.666;2023-12-04T09:24:25;1.80;99.90
33988;DHT22;37428;53.580;-1.666;2023-12-04T09:27:28;1.80;99.90
33988;DHT22;37428;53.580;-1.666;2023-12-04T09:30:34;1.80;99.90
33988;DHT22;37428;53.580;-1.666;2023-12-04T09:33:37;1.90;99.90
33988;DHT22;37428;53.580;-1.666;2023-12-04T09:36:40;1.90;99.90
33988;DHT22;37428;53.580;-1.666;2023-12-04T09:39:42;1.90;99.90
33988;DHT22;37428;53.580;-1.666;2023-12-04T09:42:44;2.00;99.90
33988;DHT22;37428;53.580;-1.666;2023-12-04T09:45:48;2.00;99.90
33988;DHT22;37428;53.580;-1.666;2023-12-04T09:48:51;2.00;99.90
33988;DHT22;37428;53.580;-1.666;2023-12-04T09:51:57;2.10;99.90
33988;DHT22;37428;53.580;-1.666;2023-12-04T09:54:59;2.10;99.90
33988;DHT22;37428;53.580;-1.666;2023-12-04T09:58:02;2.10;99.90
33988;DHT22;37428;53.580;-1.666;2023-12-04T10:01:06;2.10;99.90
33988;DHT22;37428;53.580;-1.666;2023-12-04T10:04:09;2.20;99.90
33988;DHT22;37428;53.580;-1.666;2023-12-04T10:07:11;2.20;99.90
33988;DHT22;37428;53.580;-1.666;2023-12-04T10:10:14;2.20;99.90
33988;DHT22;37428;53.580;-1.666;2023-12-04T10:13:16;2.20;99.90
33988;DHT22;37428;53.580;-1.666;2023-12-04T10:16:33;2.20;99.90
33988;DHT22;37428;53.580;-1.666;2023-12-04T10:19:35;2.30;99.90
33988;DHT22;37428;53.580;-1.666;2023-12-04T10:22:38;2.30;99.90
33988;DHT22;37428;53.580;-1.666;2023-12-04T10:25:41;2.30;99.90
33988;DHT22;37428;53.580;-1.666;2023-12-04T10:28:59;2.30;99.90
33988;DHT22;37428;53.580;-1.666;2023-12-04T10:32:03;2.30;99.90
33988;DHT22;37428;53.580;-1.666;2023-12-04T10:35:06;2.20;99.90
33988;DHT22;37428;53.580;-1.666;2023-12-04T10:38:10;2.20;99.90
33988;DHT22;37428;53.580;-1.666;2023-12-04T10:41:15;2.20;99.90
33988;DHT22;37428;53.580;-1.666;2023-12-04T10:44:17;2.20;99.90
33988;DHT22;37428;53.580;-1.666;2023-12-04T10:47:22;2.30;99.90
33988;DHT22;37428;53.580;-1.666;2023-12-04T10:50:24;2.30;99.90
33988;DHT22;37428;53.580;-1.666;2023-12-04T10:53:27;2.20;99.90
33988;DHT22;37428;53.580;-1.666;2023-12-04T10:56:33;2.30;99.90
33988;DHT22;37428;53.580;-1.666;2023-12-04T10:59:39;2.30;99.90
33988;DHT22;37428;53.580;-1.666;2023-12-04T11:02:43;2.30;99.90
33988;DHT22;37428;53.580;-1.666;2023-12-04T11:05:55;2.30;99.90
33988;DHT22;37428;53.580;-1.666;2023-12-04T11:08:58;2.30;99.90
33988;DHT22;37428;53.580;-1.666;2023-12-04T11:12:05;2.30;99.90
33988;DHT22;37428;53.580;-1.666;2023-12-04T11:15:11;2.30;99.90
33988;DHT22;37428;53.580;-1.666;2023-12-04T11:18:20;2.20;99.90
33988;DHT22;37428;53.580;-1.666;2023-12-04T11:21:23;2.30;99.90
33988;DHT22;37428;53.580;-1.666;2023-12-04T11:24:26;2.30;99.90
33988;DHT22;37428;53.580;-1.666;2023-12-04T11:27:29;2.30;99.90
33988;DHT22;37428;53.580;-1.666;2023-12-04T11:30:31;2.30;99.90
33988;DHT22;37428;53.580;-1.666;2023-12-04T11:33:36;2.30;99.90
33988;DHT22;37428;53.580;-1.666;2023-12-04T11:36:39;2.30;99.90
33988;DHT22;37428;53.580;-1.666;2023-12-04T11:39:41;2.40;99.90
33988;DHT22;37428;53.580;-1.666;2023-12-04T11:42:44;2.40;99.90
33988;DHT22;37428;53.580;-1.666;2023-12-04T11:45:47;2.40;99.90
33988;DHT22;37428;53.580;-1.666;2023-12-04T11:48:54;2.40;99.90
33988;DHT22;37428;53.580;-1.666;2023-12-04T11:51:56;2.40;99.90
33988;DHT22;37428;53.580;-1.666;2023-12-04T11:54:59;2.40;99.90
33988;DHT22;37428;53.580;-1.666;2023-12-04T11:58:08;2.40;99.90
33988;DHT22;37428;53.580;-1.666;2023-12-04T12:01:11;2.40;99.90
33988;DHT22;37428;53.580;-1.666;2023-12-04T12:04:15;2.40;99.90
33988;DHT22;37428;53.580;-1.666;2023-12-04T12:07:18;2.40;99.90
33988;DHT22;37428;53.580;-1.666;2023-12-04T12:10:21;2.40;99.90
33988;DHT22;37428;53.580;-1.666;2023-12-04T12:13:23;2.50;99.90
33988;DHT22;37428;53.580;-1.666;2023-12-04T12:16:26;2.50;99.90
33988;DHT22;37428;53.580;-1.666;2023-12-04T12:19:30;2.50;99.90
33988;DHT22;37428;53.580;-1.666;2023-12-04T12:22:32;2.50;99.90
33988;DHT22;37428;53.580;-1.666;2023-12-04T12:25:34;2.50;99.90
33988;DHT22;37428;53.580;-1.666;2023-12-04T12:28:37;2.50;99.90
33988;DHT22;37428;53.580;-1.666;2023-12-04T12:31:39;2.50;99.90
33988;DHT22;37428;53.580;-1.666;2023-12-04T12:34:43;2.60;99.90
33988;DHT22;37428;53.580;-1.666;2023-12-04T12:37:45;2.60;99.90
33988;DHT22;37428;53.580;-1.666;2023-12-04T12:40:47;2.60;99.90
33988;DHT22;37428;53.580;-1.666;2023-12-04T12:43:51;2.70;99.90
33988;DHT22;37428;53.580;-1.666;2023-12-04T12:46:54;2.80;99.90
33988;DHT22;37428;53.580;-1.666;2023-12-04T12:49:57;2.70;99.90
33988;DHT22;37428;53.580;-1.666;2023-12-04T12:53:03;2.70;99.90
33988;DHT22;37428;53.580;-1.666;2023-12-04T12:56:06;2.70;99.90
33988;DHT22;37428;53.580;-1.666;2023-12-04T12:59:09;2.80;99.90
33988;DHT22;37428;53.580;-1.666;2023-12-04T13:02:11;2.70;99.90
33988;DHT22;37428;53.580;-1.666;2023-12-04T13:05:15;2.80;99.90
33988;DHT22;37428;53.580;-1.666;2023-12-04T13:08:18;2.80;99.90
33988;DHT22;37428;53.580;-1.666;2023-12-04T13:11:20;2.80;99.90
33988;DHT22;37428;53.580;-1.666;2023-12-04T13:14:22;2.90;99.90
33988;DHT22;37428;53.580;-1.666;2023-12-04T13:17:25;2.90;99.90
33988;DHT22;37428;53.580;-1.666;2023-12-04T13:20:28;2.90;99.90
33988;DHT22;37428;53.580;-1.666;2023-12-04T13:23:31;2.90;99.90
33988;DHT22;37428;53.580;-1.666;2023-12-04T13:26:33;2.90;99.90
33988;DHT22;37428;53.580;-1.666;2023-12-04T13:29:35;2.90;99.90
33988;DHT22;37428;53.580;-1.666;2023-12-04T13:32:37;3.00;99.90
33988;DHT22;37428;53.580;-1.666;2023-12-04T13:35:41;3.00;99.90
33988;DHT22;37428;53.580;-1.666;2023-12-04T13:38:43;3.00;99.90
33988;DHT22;37428;53.580;-1.666;2023-12-04T13:41:46;3.00;99.90
33988;DHT22;37428;53.580;-1.666;2023-12-04T13:45:06;3.00;99.90
33988;DHT22;37428;53.580;-1.666;2023-12-04T13:48:10;3.00;99.90
33988;DHT22;37428;53.580;-1.666;2023-12-04T13:51:14;3.10;99.90
33988;DHT22;37428;53.580;-1.666;2023-12-04T13:54:16;3.10;99.90
33988;DHT22;37428;53.580;-1.666;2023-12-04T13:57:21;3.10;99.90
33988;DHT22;37428;53.580;-1.666;2023-12-04T14:00:28;3.10;99.90
33988;DHT22;37428;53.580;-1.666;2023-12-04T14:03:30;3.10;99.90
33988;DHT22;37428;53.580;-1.666;2023-12-04T14:06:35;3.10;99.90
33988;DHT22;37428;53.580;-1.666;2023-12-04T14:09:37;3.10;99.90
33988;DHT22;37428;53.580;-1.666;2023-12-04T14:12:40;3.10;99.90
33988;DHT22;37428;53.580;-1.666;2023-12-04T14:15:43;3.10;99.90
33988;DHT22;37428;53.580;-1.666;2023-12-04T14:18:46;3.10;99.90
33988;DHT22;37428;53.580;-1.666;2023-12-04T14:21:49;3.10;99.90
33988;DHT22;37428;53.580;-1.666;2023-12-04T14:24:51;3.10;99.90
33988;DHT22;37428;53.580;-1.666;2023-12-04T14:27:54;3.10;99.90
33988;DHT22;37428;53.580;-1.666;2023-12-04T14:30:56;3.20;99.90
33988;DHT22;37428;53.580;-1.666;2023-12-04T14:33:58;3.20;99.90
33988;DHT22;37428;53.580;-1.666;2023-12-04T14:37:02;3.20;99.90
33988;DHT22;37428;53.580;-1.666;2023-12-04T14:40:06;3.10;99.90
33988;DHT22;37428;53.580;-1.666;2023-12-04T14:43:08;3.20;99.90
33988;DHT22;37428;53.580;-1.666;2023-12-04T14:46:12;3.20;99.90
33988;DHT22;37428;53.580;-1.666;2023-12-04T14:49:14;3.20;99.90
33988;DHT22;37428;53.580;-1.666;2023-12-04T14:52:18;3.30;99.90
33988;DHT22;37428;53.580;-1.666;2023-12-04T14:55:22;3.30;99.90
33988;DHT22;37428;53.580;-1.666;2023-12-04T14:59:07;3.30;99.90
33988;DHT22;37428;53.580;-1.666;2023-12-04T15:02:42;3.40;99.90
33988;DHT22;37428;53.580;-1.666;2023-12-04T15:05:58;3.30;99.90
33988;DHT22;37428;53.580;-1.666;2023-12-04T15:09:32;3.30;99.90
33988;DHT22;37428;53.580;-1.666;2023-12-04T15:13:06;3.30;99.90
33988;DHT22;37428;53.580;-1.666;2023-12-04T15:16:33;3.30;99.90
33988;DHT22;37428;53.580;-1.666;2023-12-04T15:19:39;3.30;99.90
33988;DHT22;37428;53.580;-1.666;2023-12-04T15:22:57;3.30;99.90
33988;DHT22;37428;53.580;-1.666;2023-12-04T15:26:01;3.30;99.90
33988;DHT22;37428;53.580;-1.666;2023-12-04T15:29:02;3.30;99.90
33988;DHT22;37428;53.580;-1.666;2023-12-04T15:32:06;3.40;99.90
33988;DHT22;37428;53.580;-1.666;2023-12-04T15:35:07;3.40;99.90
33988;DHT22;37428;53.580;-1.666;2023-12-04T15:38:10;3.40;99.90
33988;DHT22;37428;53.580;-1.666;2023-12-04T15:41:13;3.40;99.90
33988;DHT22;37428;53.580;-1.666;2023-12-04T15:44:17;3.30;99.90
33988;DHT22;37428;53.580;-1.666;2023-12-04T15:47:19;3.30;99.90
33988;DHT22;37428;53.580;-1.666;2023-12-04T15:50:21;3.30;99.90
33988;DHT22;37428;53.580;-1.666;2023-12-04T15:53:25;3.30;99.90
33988;DHT22;37428;53.580;-1.666;2023-12-04T15:56:29;3.40;99.90
33988;DHT22;37428;53.580;-1.666;2023-12-04T15:59:31;3.30;99.90
33988;DHT22;37428;53.580;-1.666;2023-12-04T16:02:33;3.40;99.90
33988;DHT22;37428;53.580;-1.666;2023-12-04T16:05:35;3.30;99.90
33988;DHT22;37428;53.580;-1.666;2023-12-04T16:08:37;3.30;99.90
33988;DHT22;37428;53.580;-1.666;2023-12-04T16:11:40;3.40;99.90
33988;DHT22;37428;53.580;-1.666;2023-12-04T16:14:43;3.30;99.90
33988;DHT22;37428;53.580;-1.666;2023-12-04T16:17:45;3.30;99.90
33988;DHT22;37428;53.580;-1.666;2023-12-04T16:20:47;3.30;99.90
33988;DHT22;37428;53.580;-1.666;2023-12-04T16:23:49;3.30;99.90
33988;DHT22;37428;53.580;-1.666;2023-12-04T16:26:55;3.30;99.90
33988;DHT22;37428;53.580;-1.666;2023-12-04T16:29:58;3.30;99.90
33988;DHT22;37428;53.580;-1.666;2023-12-04T16:33:01;3.30;99.90
33988;DHT22;37428;53.580;-1.666;2023-12-04T16:36:04;3.30;99.90
33988;DHT22;37428;53.580;-1.666;2023-12-04T16:39:06;3.40;99.90
33988;DHT22;37428;53.580;-1.666;2023-12-04T16:42:10;3.30;99.90
33988;DHT22;37428;53.580;-1.666;2023-12-04T16:45:12;3.30;99.90
33988;DHT22;37428;53.580;-1.666;2023-12-04T16:48:14;3.40;99.90
33988;DHT22;37428;53.580;-1.666;2023-12-04T16:51:16;3.40;99.90
33988;DHT22;37428;53.580;-1.666;2023-12-04T16:54:19;3.40;99.90
33988;DHT22;37428;53.580;-1.666;2023-12-04T16:57:22;3.40;99.90
33988;DHT22;37428;53.580;-1.666;2023-12-04T17:00:25;3.40;99.90
33988;DHT22;37428;53.580;-1.666;2023-12-04T17:03:27;3.50;99.90
33988;DHT22;37428;53.580;-1.666;2023-12-04T17:06:29;3.50;99.90
33988;DHT22;37428;53.580;-1.666;2023-12-04T17:09:32;3.50;99.90
33988;DHT22;37428;53.580;-1.666;2023-12-04T17:12:37;3.50;99.90
33988;DHT22;37428;53.580;-1.666;2023-12-04T17:15:44;3.50;99.90
33988;DHT22;37428;53.580;-1.666;2023-12-04T17:18:46;3.50;99.90
33988;DHT22;37428;53.580;-1.666;2023-12-04T17:21:48;3.50;99.90
33988;DHT22;37428;53.580;-1.666;2023-12-04T17:24:51;3.40;99.90
33988;DHT22;37428;53.580;-1.666;2023-12-04T17:27:55;3.40;99.90
33988;DHT22;37428;53.580;-1.666;2023-12-04T17:30:57;3.40;99.90
33988;DHT22;37428;53.580;-1.666;2023-12-04T17:34:00;3.40;99.90
33988;DHT22;37428;53.580;-1.666;2023-12-04T17:37:02;3.40;99.90
33988;DHT22;37428;53.580;-1.666;2023-12-04T17:40:05;3.40;99.90
33988;DHT22;37428;53.580;-1.666;2023-12-04T17:43:10;3.40;99.90
33988;DHT22;37428;53.580;-1.666;2023-12-04T17:46:12;3.40;99.90
33988;DHT22;37428;53.580;-1.666;2023-12-04T17:49:15;3.50;99.90
33988;DHT22;37428;53.580;-1.666;2023-12-04T17:52:17;3.50;99.90
33988;DHT22;37428;53.580;-1.666;2023-12-04T17:55:20;3.50;99.90
33988;DHT22;37428;53.580;-1.666;2023-12-04T17:58:24;3.50;99.90
33988;DHT22;37428;53.580;-1.666;2023-12-04T18:01:27;3.50;99.90
33988;DHT22;37428;53.580;-1.666;2023-12-04T18:04:29;3.50;99.90
33988;DHT22;37428;53.580;-1.666;2023-12-04T18:07:32;3.60;99.90
33988;DHT22;37428;53.580;-1.666;2023-12-04T18:10:34;3.60;99.90
33988;DHT22;37428;53.580;-1.666;2023-12-04T18:13:38;3.60;99.90
33988;DHT22;37428;53.580;-1.666;2023-12-04T18:16:40;3.60;99.90
33988;DHT22;37428;53.580;-1.666;2023-12-04T18:19:42;3.60;99.90
33988;DHT22;37428;53.580;-1.666;2023-12-04T18:22:45;3.60;99.90
33988;DHT22;37428;53.580;-1.666;2023-12-04T18:25:50;3.60;99.90
33988;DHT22;37428;53.580;-1.666;2023-12-04T18:28:54;3.60;99.90
33988;DHT22;37428;53.580;-1.666;2023-12-04T18:31:57;3.60;99.90
33988;DHT22;37428;53.580;-1.666;2023-12-04T18:35:00;3.70;99.90
33988;DHT22;37428;53.580;-1.666;2023-12-04T18:38:06;3.60;99.90
33988;DHT22;37428;53.580;-1.666;2023-12-04T18:41:09;3.70;99.90
33988;DHT22;37428;53.580;-1.666;2023-12-04T18:44:14;3.70;99.90
33988;DHT22;37428;53.580;-1.666;2023-12-04T18:47:17;3.80;99.90
33988;DHT22;37428;53.580;-1.666;2023-12-04T18:50:22;3.70;99.90
33988;DHT22;37428;53.580;-1.666;2023-12-04T18:53:24;3.70;99.90
33988;DHT22;37428;53.580;-1.666;2023-12-04T18:56:26;3.70;99.90
33988;DHT22;37428;53.580;-1.666;2023-12-04T18:59:30;3.70;99.90
33988;DHT22;37428;53.580;-1.666;2023-12-04T19:02:33;3.70;99.90
33988;DHT22;37428;53.580;-1.666;2023-12-04T19:05:35;3.70;99.90
33988;DHT22;37428;53.580;-1.666;2023-12-04T19:08:37;3.80;99.90
33988;DHT22;37428;53.580;-1.666;2023-12-04T19:11:39;3.70;99.90
33988;DHT22;37428;53.580;-1.666;2023-12-04T19:14:43;3.70;99.90
33988;DHT22;37428;53.580;-1.666;2023-12-04T19:17:45;3.70;99.90